MST,Max TemperatureF,Mean TemperatureF,Min TemperatureF,Max Dew PointF,MeanDew PointF,Min DewpointF,Max Humidity, Mean Humidity, Min Humidity, Max Sea Level PressureIn, Mean Sea Level PressureIn, Min Sea Level PressureIn, Max VisibilityMiles, Mean VisibilityMiles, Min VisibilityMiles, Max Wind SpeedMPH, Mean Wind SpeedMPH, Max Gust SpeedMPH,PrecipitationIn, CloudCover, Events, WindDirDegrees
2012-2-1,54,39,23,16,13,10,63,41,19,30.23,30.18,30.12,10,10,10,22,8,29,0.00,0,,294
2012-2-2,58,40,22,35,20,12,85,56,27,30.19,30.11,30.00,10,10,10,28,9,32,0.03,2,Rain,114
2012-2-3,37,34,30,34,31,28,100,95,89,30.36,30.19,30.08,10,3,0,29,22,35,0.12,8,Fog-Rain-Snow,15
2012-2-4,33,24,14,28,24,12,100,86,72,30.56,30.40,30.28,10,6,1,25,14,30,0.00,6,Snow,340
2012-2-5,33,21,9,25,14,7,92,79,66,30.56,30.45,30.26,10,7,1,12,5,13,0.00,0,,278
2012-2-6,33,21,9,26,17,6,92,78,63,30.39,30.29,30.20,10,8,5,24,7,29,0.00,4,,327
2012-2-7,28,21,14,24,19,10,96,85,74,30.58,30.45,30.32,10,8,1,25,12,31,T,7,Rain-Snow,19
2012-2-8,30,22,13,23,17,12,100,86,72,30.55,30.33,30.17,10,6,1,16,7,21,0.00,5,,200
2012-2-9,43,27,10,28,20,10,92,75,57,30.29,30.21,30.12,10,9,4,22,9,28,0.00,0,,300
2012-2-10,23,16,9,18,13,0,84,73,61,30.64,30.37,30.19,10,6,1,18,10,23,T,7,Snow,15
2012-2-11,17,9,0,8,1,-4,87,70,53,30.78,30.66,30.52,10,9,2,13,5,15,T,4,Snow,130
2012-2-12,32,22,12,21,16,9,88,73,58,30.47,30.01,29.69,10,8,1,25,16,32,0.00,6,Snow,150
2012-2-13,40,31,22,29,23,19,96,78,59,29.83,29.73,29.65,10,7,2,20,9,23,0.03,5,Snow,279
2012-2-14,47,36,25,32,27,21,89,74,58,29.86,29.81,29.73,10,10,10,14,7,16,0.00,2,,327
2012-2-15,41,33,24,29,25,20,92,68,44,30.25,30.03,29.81,10,10,10,26,11,31,0.00,2,,336
2012-2-16,44,33,22,28,24,19,92,71,49,30.32,30.22,30.11,10,10,8,18,9,22,0.00,1,,247
2012-2-17,47,35,22,26,22,17,85,59,33,30.28,30.16,30.03,10,10,10,17,7,20,0.00,1,,351
2012-2-18,46,33,20,26,22,18,92,69,45,30.25,30.13,29.96,10,10,10,18,9,28,0.00,1,,195
2012-2-19,40,32,24,36,30,21,100,85,69,29.99,29.80,29.53,10,7,0,28,16,35,0.00,6,Fog,164
2012-2-20,40,33,26,36,29,18,100,77,54,29.96,29.65,29.46,10,4,0,38,20,48,0.01,6,Fog-Rain-Snow,312
2012-2-21,51,39,27,27,22,17,69,49,28,29.97,29.85,29.71,10,10,10,24,12,30,0.00,2,,264
2012-2-22,55,45,34,39,33,27,75,63,51,29.69,29.53,29.34,10,10,10,26,10,35,0.00,3,,293
2012-2-23,43,34,25,34,23,18,85,61,36,30.09,29.76,29.39,10,10,10,39,23,48,0.00,2,,323
2012-2-24,44,31,18,20,16,9,81,53,24,30.32,30.22,30.10,10,10,10,30,13,38,0.00,1,,296
2012-2-25,57,37,17,23,15,0,84,53,21,30.27,29.86,29.56,10,10,7,35,16,52,0.00,1,,177
2012-2-26,46,32,18,14,5,-3,71,44,16,30.36,30.02,29.67,10,10,10,33,19,44,0.00,0,,316
2012-2-27,47,30,12,22,16,10,92,59,25,30.45,30.23,30.02,10,10,6,36,16,45,0.00,3,,149
2012-2-28,65,48,30,47,35,22,93,66,39,29.97,29.63,29.35,10,10,5,32,19,44,T,5,,196
2012-2-29,55,41,26,21,17,12,69,45,20,29.91,29.82,29.71,10,10,10,37,15,47,0.00,0,,326